createdAt,value
2022-08-22T00:00:18.986Z,16.99
2022-08-22T00:01:18.971Z,16.98
2022-08-22T00:02:19.004Z,17.00
2022-08-22T00:02:44.020Z,18.25
2022-08-22T00:02:45.978Z,19.25
2022-08-22T00:02:52.480Z,20.51
2022-08-22T00:02:52.802Z,20.12
2022-08-22T00:02:53.533Z,19.40
2022-08-22T00:02:56.363Z,19.15
2022-08-22T00:02:56.596Z,18.51
2022-08-22T00:02:59.808Z,18.66
2022-08-22T00:03:04.820Z,19.05
2022-08-22T00:03:09.032Z,19.67
2022-08-22T00:04:18.951Z,16.95
2022-08-22T00:05:18.938Z,16.90
2022-08-22T00:06:18.950Z,16.91
2022-08-22T00:07:18.920Z,16.92
2022-08-22T00:08:18.914Z,16.95
2022-08-22T00:09:18.927Z,16.92
2022-08-22T00:10:25.185Z,16.95
2022-08-22T00:11:18.897Z,16.96
2022-08-22T00:12:18.887Z,16.91
2022-08-22T00:13:18.864Z,16.92
2022-08-22T00:14:18.879Z,16.90
2022-08-22T00:15:42.612Z,16.91
2022-08-22T00:16:18.846Z,16.90
2022-08-22T00:17:18.826Z,16.90
2022-08-22T00:18:18.839Z,16.88
2022-08-22T00:19:18.819Z,16.88
2022-08-22T00:20:18.807Z,16.87
2022-08-22T00:21:18.807Z,16.84
2022-08-22T00:22:18.806Z,16.82
2022-08-22T00:23:18.775Z,16.84
2022-08-22T00:24:18.781Z,16.81
2022-08-22T00:25:24.698Z,16.81
2022-08-22T00:26:18.749Z,16.78
2022-08-22T00:27:18.754Z,16.78
2022-08-22T00:28:18.743Z,16.77
2022-08-22T00:29:18.724Z,16.72
2022-08-22T00:30:18.712Z,16.72
2022-08-22T00:31:18.700Z,16.73
2022-08-22T00:32:18.706Z,16.72
2022-08-22T00:33:18.710Z,16.73
2022-08-22T00:34:18.686Z,16.72
2022-08-22T00:35:18.675Z,16.75
2022-08-22T00:36:18.676Z,16.72
2022-08-22T00:37:18.643Z,16.75
2022-08-22T00:38:18.642Z,16.72
2022-08-22T00:39:18.735Z,16.75
2022-08-22T00:40:18.704Z,16.78
2022-08-22T00:41:18.619Z,16.80
2022-08-22T00:42:32.155Z,16.80
2022-08-22T00:43:18.599Z,16.81
2022-08-22T00:44:18.586Z,16.82
2022-08-22T00:45:18.599Z,16.82
2022-08-22T00:46:18.580Z,16.82
2022-08-22T00:47:18.570Z,16.82
2022-08-22T00:48:18.549Z,16.81
2022-08-22T00:49:18.550Z,16.82
2022-08-22T00:50:18.545Z,16.81
2022-08-22T00:51:18.538Z,16.81
2022-08-22T00:52:18.525Z,16.78
2022-08-22T00:53:18.513Z,16.78
2022-08-22T00:54:18.492Z,16.77
2022-08-22T00:55:18.482Z,16.73
2022-08-22T00:56:18.470Z,16.72
2022-08-22T00:57:18.495Z,16.73
2022-08-22T00:58:18.452Z,16.77
2022-08-22T00:59:23.818Z,16.73
2022-08-22T01:00:18.432Z,16.73
2022-08-22T01:01:18.485Z,16.73
2022-08-22T01:02:18.428Z,16.72
2022-08-22T01:03:18.431Z,16.75
2022-08-22T01:04:18.394Z,16.72
2022-08-22T01:05:18.407Z,16.72
2022-08-22T01:06:18.374Z,16.72
2022-08-22T01:07:18.389Z,16.72
2022-08-22T01:08:18.365Z,16.70
2022-08-22T01:09:18.389Z,16.69
2022-08-22T01:10:18.370Z,16.65
2022-08-22T01:11:18.349Z,16.66
2022-08-22T01:12:18.328Z,16.67
2022-08-22T01:13:18.341Z,16.66
2022-08-22T01:14:18.309Z,16.65
2022-08-22T01:15:18.308Z,16.63
2022-08-22T01:16:18.301Z,16.59
2022-08-22T01:17:18.302Z,16.57
2022-08-22T01:18:18.282Z,16.55
2022-08-22T01:19:18.283Z,16.52
2022-08-22T01:20:18.264Z,16.52
2022-08-22T01:21:20.701Z,16.51
2022-08-22T01:22:18.246Z,16.50
2022-08-22T01:23:18.231Z,16.51
2022-08-22T01:24:18.225Z,16.50
2022-08-22T01:25:18.226Z,16.47
2022-08-22T01:26:19.406Z,16.47
2022-08-22T01:27:18.202Z,16.45
2022-08-22T01:28:18.193Z,16.44
2022-08-22T01:29:18.187Z,16.44
2022-08-22T01:30:18.179Z,16.42
2022-08-22T01:31:18.155Z,16.40
2022-08-22T01:32:18.144Z,16.37
2022-08-22T01:33:18.154Z,16.40
2022-08-22T01:34:18.136Z,16.33
2022-08-22T01:35:18.116Z,16.36
2022-08-22T01:36:18.105Z,16.36
2022-08-22T01:37:18.118Z,16.32
2022-08-22T01:38:18.103Z,16.33
2022-08-22T01:39:18.110Z,16.32
2022-08-22T01:40:18.114Z,16.30
2022-08-22T01:41:18.080Z,16.27
2022-08-22T01:42:18.061Z,16.29
2022-08-22T01:43:18.048Z,16.29
2022-08-22T01:44:18.044Z,16.30
2022-08-22T01:45:18.059Z,16.26
2022-08-22T01:46:20.596Z,16.26
2022-08-22T01:47:18.023Z,16.27
2022-08-22T01:48:18.000Z,16.27
2022-08-22T01:49:18.006Z,16.27
2022-08-22T01:50:17.981Z,16.29
2022-08-22T01:51:17.991Z,16.26
2022-08-22T01:52:19.519Z,16.29
2022-08-22T01:53:17.963Z,16.29
2022-08-22T01:54:17.943Z,16.27
2022-08-22T01:55:17.943Z,16.27
2022-08-22T01:56:17.938Z,16.26
2022-08-22T01:57:17.944Z,16.25
2022-08-22T01:58:17.913Z,16.25
2022-08-22T01:59:17.918Z,16.25
2022-08-22T02:00:17.909Z,16.23
2022-08-22T02:01:17.943Z,16.23
2022-08-22T02:02:17.875Z,16.22
2022-08-22T02:03:17.895Z,16.18
2022-08-22T02:04:17.856Z,16.22
2022-08-22T02:05:17.869Z,16.22
2022-08-22T02:06:17.837Z,16.22
2022-08-22T02:07:17.853Z,16.22
2022-08-22T02:08:17.818Z,16.18
2022-08-22T02:09:17.820Z,16.17
2022-08-22T02:10:17.812Z,16.22
2022-08-22T02:11:17.813Z,16.22
2022-08-22T02:12:21.755Z,16.22
2022-08-22T02:13:17.793Z,16.18
2022-08-22T02:14:17.774Z,16.22
2022-08-22T02:15:17.785Z,16.18
2022-08-22T02:16:17.754Z,16.22
2022-08-22T02:17:17.755Z,16.22
2022-08-22T02:18:17.735Z,16.22
2022-08-22T02:19:17.722Z,16.17
2022-08-22T02:20:17.715Z,16.16
2022-08-22T02:21:17.723Z,16.17
2022-08-22T02:22:17.697Z,16.16
2022-08-22T02:23:17.697Z,16.11
2022-08-22T02:24:17.677Z,16.11
2022-08-22T02:25:17.666Z,16.13
2022-08-22T02:26:17.751Z,16.14
2022-08-22T02:27:17.661Z,16.14
2022-08-22T02:28:17.648Z,16.13
2022-08-22T02:29:17.627Z,16.11
2022-08-22T02:30:17.617Z,16.10
2022-08-22T02:31:17.620Z,16.10
2022-08-22T02:32:17.610Z,16.08
2022-08-22T02:33:17.607Z,16.07
2022-08-22T02:34:17.591Z,16.08
2022-08-22T02:35:17.584Z,16.07
2022-08-22T02:36:17.572Z,16.06
2022-08-22T02:37:17.569Z,16.07
2022-08-22T02:38:17.540Z,16.08
2022-08-22T02:39:17.557Z,16.08
2022-08-22T02:40:17.559Z,16.10
2022-08-22T02:41:17.521Z,16.08
2022-08-22T02:42:17.514Z,16.08
2022-08-22T02:43:17.501Z,16.08
2022-08-22T02:44:17.489Z,16.06
2022-08-22T02:45:17.604Z,16.06
2022-08-22T02:46:17.462Z,16.07
2022-08-22T02:47:17.462Z,16.04
2022-08-22T02:48:17.443Z,16.03
2022-08-22T02:49:17.457Z,16.03
2022-08-22T02:50:17.488Z,16.06
2022-08-22T02:51:17.444Z,16.06
2022-08-22T02:52:17.414Z,16.06
2022-08-22T02:53:17.405Z,16.04
2022-08-22T02:54:17.395Z,16.06
2022-08-22T02:55:17.399Z,16.03
2022-08-22T02:56:17.389Z,16.01
2022-08-22T02:57:17.430Z,16.03
2022-08-22T02:58:17.357Z,15.99
2022-08-22T02:59:17.348Z,16.01
2022-08-22T03:00:31.426Z,15.98
2022-08-22T03:01:17.380Z,15.98
2022-08-22T03:02:17.332Z,15.98
2022-08-22T03:03:17.329Z,15.96
2022-08-22T03:04:17.313Z,15.96
2022-08-22T03:05:17.302Z,15.95
2022-08-22T03:06:17.281Z,15.95
2022-08-22T03:07:17.280Z,15.96
2022-08-22T03:08:17.274Z,15.95
2022-08-22T03:09:17.261Z,15.95
2022-08-22T03:10:17.255Z,15.95
2022-08-22T03:11:17.241Z,15.95
2022-08-22T03:12:17.230Z,15.95
2022-08-22T03:13:17.240Z,15.96
2022-08-22T03:14:17.203Z,15.93
2022-08-22T03:15:17.224Z,15.92
2022-08-22T03:16:17.192Z,15.91
2022-08-22T03:17:17.185Z,15.91
2022-08-22T03:18:17.173Z,15.91
2022-08-22T03:19:18.548Z,15.89
2022-08-22T03:20:17.167Z,15.86
2022-08-22T03:21:17.165Z,15.85
2022-08-22T03:22:17.150Z,15.85
2022-08-22T03:23:17.140Z,15.88
2022-08-22T03:24:17.131Z,15.89
2022-08-22T03:25:17.107Z,15.89
2022-08-22T03:26:17.111Z,15.89
2022-08-22T03:27:32.744Z,15.91
2022-08-22T03:28:17.078Z,15.92
2022-08-22T03:29:17.090Z,15.91
2022-08-22T03:30:17.059Z,15.91
2022-08-22T03:31:17.060Z,15.92
2022-08-22T03:32:17.069Z,15.92
2022-08-22T03:33:17.090Z,15.91
2022-08-22T03:34:17.021Z,15.92
2022-08-22T03:35:17.020Z,15.91
2022-08-22T03:36:17.001Z,15.89
2022-08-22T03:37:17.002Z,15.86
2022-08-22T03:38:16.985Z,15.85
2022-08-22T03:39:17.285Z,15.84
2022-08-22T03:40:17.031Z,15.85
2022-08-22T03:41:16.963Z,15.85
2022-08-22T03:42:16.953Z,15.85
2022-08-22T03:43:16.943Z,15.81
2022-08-22T03:44:16.932Z,15.84
2022-08-22T03:45:16.935Z,15.84
2022-08-22T03:46:18.278Z,15.85
2022-08-22T03:47:16.929Z,15.85
2022-08-22T03:48:16.908Z,15.84
2022-08-22T03:49:16.907Z,15.85
2022-08-22T03:50:16.876Z,15.85
2022-08-22T03:51:16.900Z,15.80
2022-08-22T03:52:16.856Z,15.78
2022-08-22T03:53:19.070Z,15.78
2022-08-22T03:54:16.851Z,15.78
2022-08-22T03:55:16.838Z,15.80
2022-08-22T03:56:16.831Z,15.78
2022-08-22T03:57:16.853Z,15.77
2022-08-22T03:58:27.614Z,15.74
2022-08-22T03:59:16.821Z,15.74
2022-08-22T04:00:16.790Z,15.76
2022-08-22T04:01:16.851Z,15.77
2022-08-22T04:02:26.213Z,15.77
2022-08-22T04:03:16.804Z,15.78
2022-08-22T04:04:16.752Z,15.78
2022-08-22T04:05:16.750Z,15.77
2022-08-22T04:06:16.746Z,15.77
2022-08-22T04:07:31.721Z,15.76
2022-08-22T04:08:16.723Z,15.76
2022-08-22T04:09:16.736Z,15.73
2022-08-22T04:10:16.702Z,15.76
2022-08-22T04:11:16.694Z,15.74
2022-08-22T04:12:16.699Z,15.71
2022-08-22T04:13:16.690Z,15.71
2022-08-22T04:14:16.666Z,15.70
2022-08-22T04:15:16.689Z,15.71
2022-08-22T04:16:16.647Z,15.71
2022-08-22T04:17:16.647Z,15.71
2022-08-22T04:18:16.627Z,15.68
2022-08-22T04:19:16.626Z,15.67
2022-08-22T04:20:16.749Z,15.66
2022-08-22T04:21:16.641Z,15.67
2022-08-22T04:22:16.602Z,15.66
2022-08-22T04:23:16.588Z,15.67
2022-08-22T04:24:16.583Z,15.66
2022-08-22T04:25:16.581Z,15.64
2022-08-22T04:26:16.551Z,15.60
2022-08-22T04:27:16.584Z,15.60
2022-08-22T04:28:16.545Z,15.59
2022-08-22T04:29:16.547Z,15.59
2022-08-22T04:30:16.521Z,15.58
2022-08-22T04:31:16.512Z,15.55
2022-08-22T04:32:16.501Z,15.52
2022-08-22T04:33:16.512Z,15.53
2022-08-22T04:34:16.494Z,15.56
2022-08-22T04:35:16.488Z,15.56
2022-08-22T04:36:16.463Z,15.56
2022-08-22T04:37:16.475Z,15.56
2022-08-22T04:38:16.447Z,15.58
2022-08-22T04:39:16.455Z,15.56
2022-08-22T04:40:16.485Z,15.56
2022-08-22T04:41:16.417Z,15.59
2022-08-22T04:42:32.268Z,15.59
2022-08-22T04:43:16.416Z,15.59
2022-08-22T04:44:16.399Z,15.60
2022-08-22T04:45:16.409Z,15.62
2022-08-22T04:46:16.367Z,15.62
2022-08-22T04:47:16.380Z,15.62
2022-08-22T04:48:16.353Z,15.64
2022-08-22T04:49:16.361Z,15.60
2022-08-22T04:50:16.329Z,15.62
2022-08-22T04:51:16.348Z,15.64
2022-08-22T04:52:16.319Z,15.62
2022-08-22T04:53:16.310Z,15.62
2022-08-22T04:54:16.325Z,15.62
2022-08-22T04:55:16.290Z,15.62
2022-08-22T04:56:16.334Z,15.66
2022-08-22T04:57:16.292Z,15.66
2022-08-22T04:58:16.275Z,15.60
2022-08-22T04:59:16.252Z,15.62
2022-08-22T05:00:16.252Z,15.62
2022-08-22T05:01:16.282Z,15.64
2022-08-22T05:02:16.237Z,15.66
2022-08-22T05:03:16.248Z,15.66
2022-08-22T05:04:16.218Z,15.67
2022-08-22T05:05:16.208Z,15.67
2022-08-22T05:06:16.198Z,15.66
2022-08-22T05:07:16.198Z,15.62
2022-08-22T05:08:16.166Z,15.66
2022-08-22T05:09:16.539Z,15.66
2022-08-22T05:10:16.169Z,15.66
2022-08-22T05:11:16.136Z,15.68
2022-08-22T05:12:16.137Z,15.66
2022-08-22T05:13:16.131Z,15.64
2022-08-22T05:14:16.119Z,15.67
2022-08-22T05:15:16.108Z,15.66
2022-08-22T05:16:16.112Z,15.67
2022-08-22T05:17:17.160Z,15.68
2022-08-22T05:18:16.092Z,15.66
2022-08-22T05:19:17.035Z,15.67
2022-08-22T05:20:16.060Z,15.68
2022-08-22T05:21:16.074Z,15.70
2022-08-22T05:22:16.050Z,15.71
2022-08-22T05:23:17.551Z,15.68
2022-08-22T05:24:16.043Z,15.71
2022-08-22T05:25:16.025Z,15.73
2022-08-22T05:26:16.011Z,15.70
2022-08-22T05:27:16.033Z,15.70
2022-08-22T05:28:16.006Z,15.66
2022-08-22T05:29:15.973Z,15.64
2022-08-22T05:30:15.987Z,15.70
2022-08-22T05:31:15.969Z,15.66
2022-08-22T05:32:15.978Z,15.70
2022-08-22T05:33:15.958Z,15.71
2022-08-22T05:34:15.950Z,15.77
2022-08-22T05:35:15.939Z,15.78
2022-08-22T05:36:15.925Z,15.78
2022-08-22T05:37:15.914Z,15.80
2022-08-22T05:38:15.921Z,15.85
2022-08-22T05:39:15.920Z,15.85
2022-08-22T05:40:15.948Z,15.86
2022-08-22T05:41:15.881Z,15.85
2022-08-22T05:42:15.878Z,15.89
2022-08-22T05:43:15.858Z,15.89
2022-08-22T05:44:15.863Z,15.91
2022-08-22T05:45:15.857Z,15.91
2022-08-22T05:46:15.830Z,15.95
2022-08-22T05:47:15.834Z,15.96
2022-08-22T05:48:15.824Z,15.99
2022-08-22T05:49:15.808Z,16.01
2022-08-22T05:50:15.807Z,16.03
2022-08-22T05:51:15.802Z,16.04
2022-08-22T05:52:15.784Z,16.07
2022-08-22T05:53:15.775Z,16.07
2022-08-22T05:54:15.761Z,16.10
2022-08-22T05:55:15.757Z,16.13
2022-08-22T05:56:15.743Z,16.14
2022-08-22T05:57:15.751Z,16.22
2022-08-22T05:58:15.737Z,16.26
2022-08-22T05:59:15.709Z,16.33
2022-08-22T06:00:15.705Z,16.48
2022-08-22T06:01:15.877Z,16.55
2022-08-22T06:02:15.686Z,16.69
2022-08-22T06:03:15.697Z,16.82
2022-08-22T06:04:15.680Z,16.96
2022-08-22T06:05:15.646Z,17.07
2022-08-22T06:06:15.647Z,17.20
2022-08-22T06:07:15.636Z,17.32
2022-08-22T06:08:15.627Z,17.43
2022-08-22T06:09:15.804Z,17.57
2022-08-22T06:10:15.609Z,17.68
2022-08-22T06:11:15.597Z,17.79
2022-08-22T06:12:21.706Z,17.91
2022-08-22T06:13:15.593Z,18.01
2022-08-22T06:14:15.572Z,18.07
2022-08-22T06:15:15.582Z,18.13
2022-08-22T06:16:15.565Z,18.19
2022-08-22T06:17:15.554Z,18.21
2022-08-22T06:18:15.578Z,18.23
2022-08-22T06:19:19.970Z,18.26
2022-08-22T06:20:15.526Z,18.29
2022-08-22T06:21:15.516Z,18.31
2022-08-22T06:22:18.749Z,18.34
2022-08-22T06:23:15.483Z,18.41
2022-08-22T06:24:15.483Z,18.46
2022-08-22T06:25:15.464Z,18.54
2022-08-22T06:26:20.759Z,18.62
2022-08-22T06:27:15.466Z,18.68
2022-08-22T06:28:15.435Z,18.72
2022-08-22T06:29:15.426Z,18.82
2022-08-22T06:30:15.441Z,18.84
2022-08-22T06:31:15.406Z,18.91
2022-08-22T06:32:15.407Z,18.96
2022-08-22T06:33:15.397Z,18.97
2022-08-22T06:34:15.400Z,18.99
2022-08-22T06:35:15.376Z,19.05
2022-08-22T06:36:15.522Z,19.06
2022-08-22T06:37:15.360Z,19.06
2022-08-22T06:38:15.363Z,19.05
2022-08-22T06:39:15.353Z,19.02
2022-08-22T06:40:15.469Z,18.99
2022-08-22T06:41:15.334Z,18.99
2022-08-22T06:42:16.960Z,18.97
2022-08-22T06:43:15.305Z,18.96
2022-08-22T06:44:15.313Z,18.94
2022-08-22T06:45:15.302Z,18.96
2022-08-22T06:46:15.296Z,18.96
2022-08-22T06:47:15.271Z,18.99
2022-08-22T06:48:15.264Z,18.99
2022-08-22T06:49:15.257Z,19.02
2022-08-22T06:50:15.257Z,19.02
2022-08-22T06:51:15.258Z,19.01
2022-08-22T06:52:15.233Z,19.02
2022-08-22T06:53:15.224Z,19.02
2022-08-22T06:54:15.213Z,19.07
2022-08-22T06:55:15.196Z,19.10
2022-08-22T06:56:15.200Z,19.16
2022-08-22T06:57:15.468Z,19.17
2022-08-22T06:58:15.178Z,19.23
2022-08-22T06:59:15.157Z,19.25
2022-08-22T07:00:15.158Z,19.27
2022-08-22T07:01:15.150Z,19.31
2022-08-22T07:02:15.160Z,19.31
2022-08-22T07:03:15.150Z,19.39
2022-08-22T07:04:15.151Z,19.43
2022-08-22T07:05:15.112Z,19.45
2022-08-22T07:06:15.100Z,19.52
2022-08-22T07:07:15.104Z,19.55
2022-08-22T07:08:15.104Z,19.61
2022-08-22T07:09:15.082Z,19.65
2022-08-22T07:10:15.071Z,19.70
2022-08-22T07:11:15.072Z,19.71
2022-08-22T07:12:15.073Z,19.76
2022-08-22T07:13:15.042Z,19.85
2022-08-22T07:14:15.047Z,19.90
2022-08-22T07:15:15.047Z,19.95
2022-08-22T07:16:15.023Z,20.02
2022-08-22T07:17:15.019Z,20.07
2022-08-22T07:18:15.018Z,20.15
2022-08-22T07:19:14.987Z,20.19
2022-08-22T07:20:14.986Z,20.23
2022-08-22T07:21:15.106Z,20.27
2022-08-22T07:22:14.967Z,20.31
2022-08-22T07:23:14.948Z,20.37
2022-08-22T07:24:14.962Z,20.40
2022-08-22T07:25:14.952Z,20.44
2022-08-22T07:26:14.929Z,20.46
2022-08-22T07:27:15.914Z,20.48
2022-08-22T07:28:16.313Z,20.53
2022-08-22T07:29:14.913Z,20.57
2022-08-22T07:30:14.911Z,20.63
2022-08-22T07:31:14.906Z,20.69
2022-08-22T07:32:14.896Z,20.73
2022-08-22T07:33:25.786Z,20.78
2022-08-22T07:34:14.876Z,20.79
2022-08-22T07:35:14.857Z,20.87
2022-08-22T07:36:14.843Z,20.88
2022-08-22T07:37:14.833Z,20.91
2022-08-22T07:38:14.838Z,20.96
2022-08-22T07:39:14.836Z,20.96
2022-08-22T07:40:14.881Z,21.00
2022-08-22T07:41:14.795Z,21.03
2022-08-22T07:42:14.809Z,21.09
2022-08-22T07:43:14.790Z,21.13
2022-08-22T07:44:14.790Z,21.18
2022-08-22T07:45:14.779Z,21.21
2022-08-22T07:46:14.757Z,21.21
2022-08-22T07:47:14.761Z,21.24
2022-08-22T07:48:22.650Z,21.26
2022-08-22T07:49:14.728Z,21.28
2022-08-22T07:50:14.749Z,21.31
2022-08-22T07:51:14.720Z,21.34
2022-08-22T07:52:14.710Z,21.40
2022-08-22T07:53:15.571Z,21.42
2022-08-22T07:54:14.704Z,21.46
2022-08-22T07:55:14.675Z,21.51
2022-08-22T07:56:14.683Z,21.55
2022-08-22T07:57:14.672Z,21.55
2022-08-22T07:58:14.652Z,21.55
2022-08-22T07:59:14.645Z,21.55
2022-08-22T08:00:14.633Z,21.55
2022-08-22T08:01:14.708Z,21.58
2022-08-22T08:02:14.635Z,21.59
2022-08-22T08:03:14.614Z,21.59
2022-08-22T08:04:14.609Z,21.58
2022-08-22T08:05:14.599Z,21.59
2022-08-22T08:06:14.604Z,21.64
2022-08-22T08:07:14.566Z,21.66
2022-08-22T08:08:15.674Z,21.68
2022-08-22T08:09:14.591Z,21.74
2022-08-22T08:10:14.549Z,21.79
2022-08-22T08:11:14.541Z,21.83
2022-08-22T08:12:14.550Z,21.86
2022-08-22T08:13:14.518Z,21.91
2022-08-22T08:14:14.509Z,21.93
2022-08-22T08:15:14.520Z,21.94
2022-08-22T08:16:14.504Z,21.96
2022-08-22T08:17:14.493Z,21.98
2022-08-22T08:18:14.494Z,22.01
2022-08-22T08:19:14.462Z,22.02
2022-08-22T08:20:14.475Z,22.02
2022-08-22T08:21:14.486Z,22.05
2022-08-22T08:22:14.442Z,22.06
2022-08-22T08:23:14.437Z,22.12
2022-08-22T08:24:14.424Z,22.19
2022-08-22T08:25:14.427Z,22.26
2022-08-22T08:26:14.414Z,22.30
2022-08-22T08:27:14.405Z,22.33
2022-08-22T08:28:14.396Z,22.39
2022-08-22T08:29:14.390Z,22.42
2022-08-22T08:30:15.618Z,22.45
2022-08-22T08:31:14.370Z,22.51
2022-08-22T08:32:14.358Z,22.56
2022-08-22T08:33:25.808Z,22.59
2022-08-22T08:34:14.338Z,22.63
2022-08-22T08:35:14.328Z,22.63
2022-08-22T08:36:14.319Z,22.66
2022-08-22T08:37:14.310Z,22.67
2022-08-22T08:38:14.313Z,22.67
2022-08-22T08:39:14.430Z,22.66
2022-08-22T08:40:14.373Z,22.64
2022-08-22T08:41:14.271Z,22.64
2022-08-22T08:42:14.284Z,22.63
2022-08-22T08:43:14.265Z,22.64
2022-08-22T08:44:14.266Z,22.69
2022-08-22T08:45:14.263Z,22.69
2022-08-22T08:46:14.234Z,22.72
2022-08-22T08:47:14.237Z,22.70
2022-08-22T08:48:14.213Z,22.70
2022-08-22T08:49:14.204Z,22.69
2022-08-22T08:50:14.215Z,22.70
2022-08-22T08:51:14.208Z,22.69
2022-08-22T08:52:14.189Z,22.69
2022-08-22T08:53:14.179Z,22.70
2022-08-22T08:54:14.166Z,22.70
2022-08-22T08:55:22.017Z,22.74
2022-08-22T08:56:19.486Z,22.78
2022-08-22T08:57:14.158Z,22.82
2022-08-22T08:58:14.142Z,22.88
2022-08-22T08:59:14.131Z,22.89
2022-08-22T09:00:14.120Z,22.94
2022-08-22T09:01:14.132Z,22.97
2022-08-22T09:02:20.696Z,22.96
2022-08-22T09:03:15.817Z,22.99
2022-08-22T09:04:15.154Z,23.00
2022-08-22T09:05:14.074Z,23.00
2022-08-22T09:06:14.061Z,23.01
2022-08-22T09:07:14.042Z,23.03
2022-08-22T09:08:14.057Z,23.03
2022-08-22T09:09:14.057Z,23.06
2022-08-22T09:10:14.036Z,23.09
2022-08-22T09:11:14.248Z,23.12
2022-08-22T09:12:14.026Z,23.15
2022-08-22T09:13:13.995Z,23.22
2022-08-22T09:14:14.174Z,23.26
2022-08-22T09:15:14.412Z,23.31
2022-08-22T09:16:13.977Z,23.38
2022-08-22T09:17:13.970Z,23.41
2022-08-22T09:18:13.970Z,23.47
2022-08-22T09:19:13.953Z,23.45
2022-08-22T09:21:13.939Z,23.47
2022-08-22T09:22:14.518Z,23.52
2022-08-22T09:23:13.922Z,23.49
2022-08-22T09:24:14.141Z,23.49
2022-08-22T09:25:13.902Z,23.49
2022-08-22T09:26:13.880Z,23.45
2022-08-22T09:27:13.893Z,23.44
2022-08-22T09:28:13.900Z,23.39
2022-08-22T09:29:13.865Z,23.39
2022-08-22T09:30:13.843Z,23.41
2022-08-22T09:31:16.975Z,23.41
2022-08-22T09:32:13.845Z,23.45
2022-08-22T09:33:13.844Z,23.49
2022-08-22T09:34:13.818Z,23.54
2022-08-22T09:35:13.819Z,23.57
2022-08-22T09:36:13.806Z,23.60
2022-08-22T09:37:14.092Z,23.62
2022-08-22T09:38:13.790Z,23.67
2022-08-22T09:39:13.796Z,23.64
2022-08-22T09:40:17.238Z,23.68
2022-08-22T09:41:13.747Z,23.69
2022-08-22T09:42:13.751Z,23.71
2022-08-22T09:43:13.741Z,23.71
2022-08-22T09:44:13.718Z,23.71
2022-08-22T09:45:13.757Z,23.69
2022-08-22T09:46:13.717Z,23.72
2022-08-22T09:47:13.713Z,23.72
2022-08-22T09:48:13.703Z,23.75
2022-08-22T09:49:13.681Z,23.78
2022-08-22T09:50:13.673Z,23.82
2022-08-22T09:51:31.822Z,23.82
2022-08-22T09:52:15.602Z,23.82
2022-08-22T09:53:13.662Z,23.82
2022-08-22T09:54:13.647Z,23.81
2022-08-22T09:55:16.009Z,23.81
2022-08-22T09:56:15.715Z,23.81
2022-08-22T09:57:14.042Z,23.82
2022-08-22T09:58:13.610Z,23.82
2022-08-22T09:59:13.595Z,23.82
2022-08-22T10:00:13.594Z,23.82
2022-08-22T10:01:13.640Z,23.81
2022-08-22T10:02:15.801Z,23.81
2022-08-22T10:03:13.567Z,23.81
2022-08-22T10:04:13.547Z,23.82
2022-08-22T10:05:13.553Z,23.84
2022-08-22T10:06:13.527Z,23.82
2022-08-22T10:07:13.527Z,23.86
2022-08-22T10:08:13.538Z,23.84
2022-08-22T10:09:13.520Z,23.89
2022-08-22T10:10:13.504Z,23.84
2022-08-22T10:11:13.490Z,23.82
2022-08-22T10:12:13.482Z,23.82
2022-08-22T10:13:13.485Z,23.78
2022-08-22T10:14:13.462Z,23.77
2022-08-22T10:15:13.483Z,23.79
2022-08-22T10:16:13.440Z,23.77
2022-08-22T10:17:13.447Z,23.75
2022-08-22T10:18:13.424Z,23.75
2022-08-22T10:19:13.425Z,23.77
2022-08-22T10:20:13.404Z,23.77
2022-08-22T10:21:13.426Z,23.78
2022-08-22T10:22:13.386Z,23.77
2022-08-22T10:23:13.399Z,23.75
2022-08-22T10:24:13.367Z,23.75
2022-08-22T10:25:13.368Z,23.74
2022-08-22T10:26:13.351Z,23.74
2022-08-22T10:27:13.373Z,23.72
2022-08-22T10:28:13.377Z,23.72
2022-08-22T10:29:13.339Z,23.74
2022-08-22T10:30:13.458Z,23.74
2022-08-22T10:31:13.310Z,23.72
2022-08-22T10:32:14.611Z,23.74
2022-08-22T10:33:13.312Z,23.69
2022-08-22T10:34:13.295Z,23.67
2022-08-22T10:35:13.293Z,23.62
2022-08-22T10:36:13.263Z,23.60
2022-08-22T10:37:13.262Z,23.60
2022-08-22T10:38:13.253Z,23.60
2022-08-22T10:39:13.264Z,23.60
2022-08-22T10:40:13.277Z,23.62
2022-08-22T10:41:13.238Z,23.63
2022-08-22T10:42:13.215Z,23.64
2022-08-22T10:43:13.208Z,23.64
2022-08-22T10:44:13.195Z,23.68
2022-08-22T10:45:13.228Z,23.67
2022-08-22T10:46:13.843Z,23.68
2022-08-22T10:47:13.176Z,23.72
2022-08-22T10:48:13.158Z,23.72
2022-08-22T10:49:17.907Z,23.74
2022-08-22T10:50:13.149Z,23.74
2022-08-22T10:51:13.171Z,23.69
2022-08-22T10:52:15.638Z,23.67
2022-08-22T10:53:13.121Z,23.64
2022-08-22T10:54:13.124Z,23.64
2022-08-22T10:55:13.114Z,23.63
2022-08-22T10:56:13.105Z,23.63
2022-08-22T10:57:13.115Z,23.60
2022-08-22T10:58:13.078Z,23.57
2022-08-22T10:59:13.086Z,23.56
2022-08-22T11:00:13.070Z,23.53
2022-08-22T11:01:37.515Z,23.50
2022-08-22T11:02:13.034Z,23.52
2022-08-22T11:03:18.709Z,23.53
2022-08-22T11:04:13.037Z,23.54
2022-08-22T11:05:13.029Z,23.54
2022-08-22T11:06:13.019Z,23.56
2022-08-22T11:07:12.997Z,23.54
2022-08-22T11:08:13.001Z,23.52
2022-08-22T11:09:13.010Z,23.47
2022-08-22T11:10:12.981Z,23.44
2022-08-22T11:11:12.982Z,23.39
2022-08-22T11:12:12.969Z,23.39
2022-08-22T11:13:12.962Z,23.34
2022-08-22T11:14:12.943Z,23.35
2022-08-22T11:15:12.945Z,23.32
2022-08-22T11:16:12.919Z,23.34
2022-08-22T11:17:30.790Z,23.34
2022-08-22T11:18:13.276Z,23.32
2022-08-22T11:19:15.652Z,23.26
2022-08-22T11:20:12.896Z,23.29
2022-08-22T11:21:12.902Z,23.23
2022-08-22T11:22:12.877Z,23.23
2022-08-22T11:23:12.854Z,23.25
2022-08-22T11:24:17.162Z,23.22
2022-08-22T11:25:12.846Z,23.23
2022-08-22T11:26:12.825Z,23.25
2022-08-22T11:27:13.241Z,23.29
2022-08-22T11:28:12.820Z,23.31
2022-08-22T11:29:13.929Z,23.32
2022-08-22T11:30:18.228Z,23.31
2022-08-22T11:31:12.831Z,23.31
2022-08-22T11:32:12.781Z,23.26
2022-08-22T11:33:13.794Z,23.31
2022-08-22T11:34:12.759Z,23.31
2022-08-22T11:35:12.763Z,23.31
2022-08-22T11:36:12.810Z,23.25
2022-08-22T11:37:12.745Z,23.26
2022-08-22T11:38:12.736Z,23.25
2022-08-22T11:39:18.351Z,23.25
2022-08-22T11:40:12.777Z,23.25
2022-08-22T11:41:12.703Z,23.23
2022-08-22T11:42:12.684Z,23.23
2022-08-22T11:43:18.260Z,23.26
2022-08-22T11:44:12.686Z,23.29
2022-08-22T11:45:16.001Z,23.32
2022-08-22T11:46:12.666Z,23.31
2022-08-22T11:47:12.660Z,23.31
2022-08-22T11:48:12.649Z,23.26
2022-08-22T11:49:12.647Z,23.22
2022-08-22T11:50:14.107Z,23.21
2022-08-22T11:51:13.327Z,23.21
2022-08-22T11:52:12.598Z,23.19
2022-08-22T11:53:12.610Z,23.21
2022-08-22T11:54:12.594Z,23.21
2022-08-22T11:55:12.594Z,23.21
2022-08-22T11:56:12.570Z,23.18
2022-08-22T11:57:12.593Z,23.21
2022-08-22T11:58:12.564Z,23.21
2022-08-22T11:59:12.563Z,23.21
2022-08-22T12:00:12.531Z,23.23
2022-08-22T12:01:17.457Z,23.22
2022-08-22T12:02:12.553Z,23.25
2022-08-22T12:03:12.533Z,23.25
2022-08-22T12:04:12.763Z,23.22
2022-08-22T12:05:19.494Z,23.23
2022-08-22T12:06:12.491Z,23.22
2022-08-22T12:07:12.474Z,23.25
2022-08-22T12:08:12.455Z,23.25
2022-08-22T12:09:12.478Z,23.29
2022-08-22T12:10:13.758Z,23.29
2022-08-22T12:11:12.437Z,23.26
2022-08-22T12:12:12.440Z,23.26
2022-08-22T12:13:12.437Z,23.26
2022-08-22T12:14:12.407Z,23.26
2022-08-22T12:15:12.417Z,23.26
2022-08-22T12:16:12.389Z,23.26
2022-08-22T12:17:13.607Z,23.29
2022-08-22T12:18:15.336Z,23.31
2022-08-22T12:19:12.372Z,23.32
2022-08-22T12:20:16.745Z,23.32
2022-08-22T12:21:12.371Z,23.35
2022-08-22T12:22:12.353Z,23.35
2022-08-22T12:23:12.342Z,23.35
2022-08-22T12:24:19.393Z,23.35
2022-08-22T12:25:12.322Z,23.32
2022-08-22T12:26:12.303Z,23.34
2022-08-22T12:27:12.327Z,23.32
2022-08-22T12:28:12.284Z,23.31
2022-08-22T12:29:15.696Z,23.31
2022-08-22T12:30:13.906Z,23.29
2022-08-22T12:31:12.265Z,23.29
2022-08-22T12:32:12.269Z,23.25
2022-08-22T12:33:13.164Z,23.23
2022-08-22T12:34:12.248Z,23.22
2022-08-22T12:35:14.283Z,23.21
2022-08-22T12:36:18.172Z,23.19
2022-08-22T12:37:12.224Z,23.21
2022-08-22T12:38:28.262Z,23.21
2022-08-22T12:39:12.218Z,23.23
2022-08-22T12:40:12.241Z,23.23
2022-08-22T12:41:12.200Z,23.25
2022-08-22T12:42:12.175Z,23.26
2022-08-22T12:43:12.161Z,23.29
2022-08-22T12:44:16.469Z,23.31